Time;durP1;ratioP1;P1;durP2;ratioP2;P2;SDS_P1;SDS_P2;PMS_P1;PMS_P2;Temp;Humidity;BMP_temperature;BMP_pressure;BME280_temperature;BME280_humidity;BME280_pressure;Samples;Min_cycle;Max_cycle;Signal;HPM_P1;HPM_P2
2022/03/19 00:00:51;;;;;;;;;;;;;;;;;;4994989;28;19914;-29
2022/03/19 00:03:20;;;;;;;;;;;;;;;;;;4995100;28;19910;-24
2022/03/19 00:05:46;;;;;;;;;;;;;;;;;;4994849;28;19965;-32
2022/03/19 00:08:16;;;;;;;;;;;;;;;;;;4994801;28;19929;-30
2022/03/19 00:10:42;;;;;;;;;;;;;;;;;;4977643;28;19913;-30
2022/03/19 00:13:10;;;;;;;;;;;;;;;;;;4977720;28;19910;-32
2022/03/19 00:15:37;;;;;;;;;;;;;;;;;;4995229;28;19918;-33
2022/03/19 00:18:04;;;;;;;;;;;;;;;;;;4995027;28;19914;-30
2022/03/19 00:20:31;;;;;;;;;;;;;;;;;;4994932;28;19914;-26
2022/03/19 00:22:59;;;;;;;;;;;;;;;;;;4994827;28;20396;-32
2022/03/19 00:25:26;;;;;;;;;;;;;;;;;;4995138;28;20252;-26
2022/03/19 00:27:53;;;;;;;;;;;;;;;;;;4994706;28;19920;-31
2022/03/19 00:30:20;;;;;;;;;;;;;;;;;;4995314;28;19976;-29
2022/03/19 00:32:46;;;;;;;;;;;;;;;;;;4980987;28;20001;-30
2022/03/19 00:35:12;;;;;;;;;;;;;;;;;;4998289;28;20345;-33
2022/03/19 00:37:40;;;;;;;;;;;;;;;;;;4997801;28;19922;-34
2022/03/19 00:40:08;;;;;;;;;;;;;;;;;;4998451;28;19917;-33
2022/03/19 00:42:34;;;;;;;;;;;;;;;;;;4997986;28;19910;-28
2022/03/19 00:45:01;;;;;;;;;;;;;;;;;;4997900;28;20332;-31
2022/03/19 00:47:30;;;;;;;;;;;;;;;;;;4997819;28;19914;-30
2022/03/19 00:49:58;;;;;;;;;;;;;;;;;;4998301;28;20285;-29
2022/03/19 00:52:25;;;;;;;;;;;;;;;;;;4997772;28;19993;-33
2022/03/19 00:54:52;;;;;;;;;;;;;;;;;;4997644;28;19921;-33
2022/03/19 00:57:19;;;;;;;;;;;;;;;;;;4997702;28;19981;-30
2022/03/19 00:59:46;;;;;;;;;;;;;;;;;;4997832;28;19921;-29
2022/03/19 01:02:12;;;;;;;;;;;;;;;;;;4997786;28;19914;-27
2022/03/19 01:04:38;;;;;;;;;;;;;;;;;;4997554;28;19918;-27
2022/03/19 01:07:06;;;;;;;;;;;;;;;;;;4997842;28;20245;-33
2022/03/19 01:09:33;;;;;;;;;;;;;;;;;;4997943;28;19914;-27
2022/03/19 01:11:59;;;;;;;;;;;;;;;;;;4997245;28;19960;-26
2022/03/19 01:14:25;;;;;;;;;;;;;;;;;;4997598;28;19976;-28
2022/03/19 01:16:53;;;;;;;;;;;;;;;;;;4997832;28;19909;-27
2022/03/19 01:19:52;;;;;;;;;;;;;;;;;;4997314;28;19925;-36
2022/03/19 01:22:06;;;;;;;;;;;;;;;;;;4997169;28;20009;-29
2022/03/19 01:24:32;;;;;;;;;;;;;;;;;;4997626;28;19921;-31
2022/03/19 01:26:58;;;;;;;;;;;;;;;;;;4997174;28;19914;-32
2022/03/19 01:29:26;;;;;;;;;;;;;;;;;;4997000;28;19910;-26
2022/03/19 01:31:52;;;;;;;;;;;;;;;;;;4997107;28;20004;-31
2022/03/19 01:34:19;;;;;;;;;;;;;;;;;;4997517;28;19918;-31
2022/03/19 01:36:45;;;;;;;;;;;;;;;;;;4996633;28;19922;-28
2022/03/19 01:39:12;;;;;;;;;;;;;;;;;;4996947;28;20364;-31
2022/03/19 01:41:38;;;;;;;;;;;;;;;;;;4996857;28;19925;-30
2022/03/19 01:44:06;;;;;;;;;;;;;;;;;;4996895;28;19921;-28
2022/03/19 01:46:35;;;;;;;;;;;;;;;;;;4996978;28;20018;-28
2022/03/19 01:49:01;;;;;;;;;;;;;;;;;;4996776;28;19917;-26
2022/03/19 01:51:29;;;;;;;;;;;;;;;;;;4979710;28;19972;-31
2022/03/19 01:53:56;;;;;;;;;;;;;;;;;;4996649;28;19917;-32
2022/03/19 01:56:26;;;;;;;;;;;;;;;;;;4996766;28;19914;-29
2022/03/19 01:58:53;;;;;;;;;;;;;;;;;;4996643;28;19926;-29
2022/03/19 02:01:21;;;;;;;;;;;;;;;;;;4979341;28;20265;-32
2022/03/19 02:03:48;;;;;;;;;;;;;;;;;;4996439;28;19917;-33
2022/03/19 02:06:15;;;;;;;;;;;;;;;;;;4979327;28;19977;-27
2022/03/19 02:08:44;;;;;;;;;;;;;;;;;;4996600;28;19914;-30
2022/03/19 02:11:12;;;;;;;;;;;;;;;;;;4996644;28;20008;-31
2022/03/19 02:13:40;;;;;;;;;;;;;;;;;;4978972;28;20305;-26
2022/03/19 02:16:09;;;;;;;;;;;;;;;;;;4996662;28;19940;-31
2022/03/19 02:18:36;;;;;;;;;;;;;;;;;;4996038;28;19949;-26
2022/03/19 02:21:02;;;;;;;;;;;;;;;;;;4996229;28;19924;-32
2022/03/19 02:26:13;;;;;;;;;;;;;;;;;;4996149;28;19925;-35
2022/03/19 02:28:39;;;;;;;;;;;;;;;;;;4996536;28;19942;-35
2022/03/19 02:31:07;;;;;;;;;;;;;;;;;;4995861;28;19914;-32
2022/03/19 02:33:33;;;;;;;;;;;;;;;;;;4995839;28;19910;-32
2022/03/19 02:35:59;;;;;;;;;;;;;;;;;;4995682;28;19914;-29
2022/03/19 02:38:27;;;;;;;;;;;;;;;;;;4978803;28;19913;-28
2022/03/19 02:40:53;;;;;;;;;;;;;;;;;;4996255;28;19981;-30
2022/03/19 02:43:21;;;;;;;;;;;;;;;;;;4995902;28;19914;-29
2022/03/19 02:45:48;;;;;;;;;;;;;;;;;;4995585;28;20383;-27
2022/03/19 02:48:16;;;;;;;;;;;;;;;;;;4995848;28;19917;-35
2022/03/19 02:50:42;;;;;;;;;;;;;;;;;;4995786;28;19945;-25
2022/03/19 02:53:12;;;;;;;;;;;;;;;;;;4995276;28;20252;-28
2022/03/19 02:55:38;;;;;;;;;;;;;;;;;;4995485;28;20012;-30
2022/03/19 02:58:05;;;;;;;;;;;;;;;;;;4995583;28;20238;-28
2022/03/19 03:00:32;;;;;;;;;;;;;;;;;;4995590;28;19914;-27
2022/03/19 03:02:58;;;;;;;;;;;;;;;;;;4995631;28;19910;-31
2022/03/19 03:05:26;;;;;;;;;;;;;;;;;;4995116;28;19914;-30
2022/03/19 03:07:53;;;;;;;;;;;;;;;;;;4995042;28;19917;-27
2022/03/19 03:10:20;;;;;;;;;;;;;;;;;;4995643;28;19931;-27
2022/03/19 03:12:47;;;;;;;;;;;;;;;;;;4995174;28;20403;-32
2022/03/19 03:15:14;;;;;;;;;;;;;;;;;;4995385;28;19950;-34
2022/03/19 03:17:40;;;;;;;;;;;;;;;;;;4995301;28;20249;-35
2022/03/19 03:20:06;;;;;;;;;;;;;;;;;;4995416;28;19925;-28
2022/03/19 03:22:32;;;;;;;;;;;;;;;;;;4995253;28;19996;-30
2022/03/19 03:24:58;;;;;;;;;;;;;;;;;;4995276;28;20368;-25
2022/03/19 03:27:25;;;;;;;;;;;;;;;;;;4995413;28;19917;-25
2022/03/19 03:29:52;;;;;;;;;;;;;;;;;;4995333;28;19979;-31
2022/03/19 03:32:18;;;;;;;;;;;;;;;;;;4977595;28;19910;-28
2022/03/19 03:34:45;;;;;;;;;;;;;;;;;;4995057;28;20396;-28
2022/03/19 03:37:12;;;;;;;;;;;;;;;;;;4994734;28;20004;-24
2022/03/19 03:39:40;;;;;;;;;;;;;;;;;;4995181;28;19914;-27
2022/03/19 03:42:07;;;;;;;;;;;;;;;;;;4978003;28;19922;-30
2022/03/19 03:44:33;;;;;;;;;;;;;;;;;;4995202;28;20361;-28
2022/03/19 03:47:00;;;;;;;;;;;;;;;;;;4995080;28;19961;-31
2022/03/19 03:49:27;;;;;;;;;;;;;;;;;;4995019;28;19960;-28
2022/03/19 03:51:55;;;;;;;;;;;;;;;;;;4977714;28;19909;-32
2022/03/19 03:54:22;;;;;;;;;;;;;;;;;;4977762;28;19913;-28
2022/03/19 03:56:48;;;;;;;;;;;;;;;;;;4978432;28;19909;-25
2022/03/19 03:59:15;;;;;;;;;;;;;;;;;;4977890;28;19929;-31
2022/03/19 04:01:43;;;;;;;;;;;;;;;;;;4995199;28;20264;-28
2022/03/19 04:04:11;;;;;;;;;;;;;;;;;;4994964;28;20000;-28
2022/03/19 04:06:37;;;;;;;;;;;;;;;;;;4997578;28;20307;-28
2022/03/19 04:09:05;;;;;;;;;;;;;;;;;;4998488;28;19924;-29
2022/03/19 04:11:31;;;;;;;;;;;;;;;;;;4981355;28;19913;-29
2022/03/19 04:13:59;;;;;;;;;;;;;;;;;;4998634;28;19921;-29
2022/03/19 04:16:26;;;;;;;;;;;;;;;;;;4998573;28;19958;-28
2022/03/19 04:18:52;;;;;;;;;;;;;;;;;;4998547;28;19969;-26
2022/03/19 04:21:20;;;;;;;;;;;;;;;;;;4998394;28;19918;-27
2022/03/19 04:23:47;;;;;;;;;;;;;;;;;;4998312;28;19913;-27
2022/03/19 04:26:15;;;;;;;;;;;;;;;;;;4999027;28;19910;-28
2022/03/19 04:28:41;;;;;;;;;;;;;;;;;;4980926;28;19914;-29
2022/03/19 04:31:08;;;;;;;;;;;;;;;;;;4981239;28;19960;-31
2022/03/19 04:33:36;;;;;;;;;;;;;;;;;;4998229;28;20000;-26
2022/03/19 04:38:48;;;;;;;;;;;;;;;;;;4998263;28;19943;-27
2022/03/19 04:41:15;;;;;;;;;;;;;;;;;;4998427;28;20183;-27
2022/03/19 04:43:42;;;;;;;;;;;;;;;;;;4998080;28;19936;-27
2022/03/19 04:46:09;;;;;;;;;;;;;;;;;;4998779;28;19914;-32
2022/03/19 04:48:35;;;;;;;;;;;;;;;;;;4997993;28;19914;-28
2022/03/19 04:51:01;;;;;;;;;;;;;;;;;;4997717;28;19972;-27
2022/03/19 04:53:30;;;;;;;;;;;;;;;;;;4997803;28;19921;-30
2022/03/19 04:55:56;;;;;;;;;;;;;;;;;;4997813;28;20365;-26
2022/03/19 04:58:24;;;;;;;;;;;;;;;;;;4997643;28;19925;-34
2022/03/19 05:00:50;;;;;;;;;;;;;;;;;;4980151;28;20367;-34
2022/03/19 05:03:16;;;;;;;;;;;;;;;;;;4997660;28;19913;-29
2022/03/19 05:05:42;;;;;;;;;;;;;;;;;;4997644;28;20068;-33
2022/03/19 05:08:08;;;;;;;;;;;;;;;;;;4997525;28;19972;-25
2022/03/19 05:13:21;;;;;;;;;;;;;;;;;;4997134;28;20343;-29
2022/03/19 05:15:47;;;;;;;;;;;;;;;;;;4996805;28;19926;-28
2022/03/19 05:18:13;;;;;;;;;;;;;;;;;;4996638;28;19918;-27
2022/03/19 05:20:39;;;;;;;;;;;;;;;;;;4997102;28;19914;-29
2022/03/19 05:23:07;;;;;;;;;;;;;;;;;;4996441;28;19914;-27
2022/03/19 05:25:33;;;;;;;;;;;;;;;;;;4996385;28;19913;-30
2022/03/19 05:27:59;;;;;;;;;;;;;;;;;;4997060;28;20380;-28
2022/03/19 05:30:26;;;;;;;;;;;;;;;;;;4996656;28;19924;-31
2022/03/19 05:32:54;;;;;;;;;;;;;;;;;;4996279;28;19910;-27
2022/03/19 05:35:20;;;;;;;;;;;;;;;;;;4996703;28;19913;-26
2022/03/19 05:37:49;;;;;;;;;;;;;;;;;;4996063;28;19933;-27
2022/03/19 05:40:16;;;;;;;;;;;;;;;;;;4996618;28;20292;-31
2022/03/19 05:42:44;;;;;;;;;;;;;;;;;;4996965;28;19910;-28
2022/03/19 05:45:10;;;;;;;;;;;;;;;;;;4996271;28;20349;-29
2022/03/19 05:47:38;;;;;;;;;;;;;;;;;;4996612;28;19910;-31
2022/03/19 05:50:04;;;;;;;;;;;;;;;;;;4996479;28;20345;-31
2022/03/19 05:52:32;;;;;;;;;;;;;;;;;;4996458;28;20312;-29
2022/03/19 05:54:58;;;;;;;;;;;;;;;;;;4979349;28;19992;-28
2022/03/19 05:57:25;;;;;;;;;;;;;;;;;;4996466;28;19976;-32
2022/03/19 05:59:51;;;;;;;;;;;;;;;;;;4996794;28;20304;-31
2022/03/19 06:02:18;;;;;;;;;;;;;;;;;;4996985;28;19909;-34
2022/03/19 06:04:44;;;;;;;;;;;;;;;;;;4978555;28;20006;-29
2022/03/19 06:07:13;;;;;;;;;;;;;;;;;;4996033;28;20297;-26
2022/03/19 06:09:40;;;;;;;;;;;;;;;;;;4995565;28;19944;-27
2022/03/19 06:12:07;;;;;;;;;;;;;;;;;;4996253;28;20237;-27
2022/03/19 06:14:33;;;;;;;;;;;;;;;;;;4978614;28;20021;-26
2022/03/19 06:17:01;;;;;;;;;;;;;;;;;;4996066;28;19940;-29
2022/03/19 06:19:27;;;;;;;;;;;;;;;;;;4995624;28;19921;-31
2022/03/19 06:21:54;;;;;;;;;;;;;;;;;;4996066;28;19914;-28
2022/03/19 06:24:23;;;;;;;;;;;;;;;;;;4978740;28;19909;-28
2022/03/19 06:26:49;;;;;;;;;;;;;;;;;;4995393;28;19913;-26
2022/03/19 06:29:15;;;;;;;;;;;;;;;;;;4977330;28;19976;-31
2022/03/19 06:31:43;;;;;;;;;;;;;;;;;;4995790;28;20261;-33
2022/03/19 06:34:10;;;;;;;;;;;;;;;;;;4995950;28;20341;-32
2022/03/19 06:39:22;;;;;;;;;;;;;;;;;;4995273;28;20012;-27
2022/03/19 06:41:48;;;;;;;;;;;;;;;;;;4977438;28;19988;-28
2022/03/19 06:44:16;;;;;;;;;;;;;;;;;;4995184;28;20345;-31
2022/03/19 06:46:44;;;;;;;;;;;;;;;;;;4977703;28;19918;-31
2022/03/19 06:49:10;;;;;;;;;;;;;;;;;;4995208;28;19909;-29
2022/03/19 06:51:36;;;;;;;;;;;;;;;;;;4994732;28;19925;-27
2022/03/19 06:54:03;;;;;;;;;;;;;;;;;;4995053;28;19925;-26
2022/03/19 06:56:29;;;;;;;;;;;;;;;;;;4977872;28;19913;-29
2022/03/19 06:58:57;;;;;;;;;;;;;;;;;;4994133;28;19918;-31
2022/03/19 07:01:24;;;;;;;;;;;;;;;;;;4994526;28;19921;-27
2022/03/19 07:03:52;;;;;;;;;;;;;;;;;;4994583;28;19909;-28
2022/03/19 07:06:18;;;;;;;;;;;;;;;;;;4977491;28;19918;-26
2022/03/19 07:08:45;;;;;;;;;;;;;;;;;;4994615;28;19914;-29
2022/03/19 07:11:11;;;;;;;;;;;;;;;;;;4977235;28;19914;-26
2022/03/19 07:13:38;;;;;;;;;;;;;;;;;;4994214;28;19928;-30
2022/03/19 07:16:06;;;;;;;;;;;;;;;;;;4994157;28;19910;-27
2022/03/19 07:18:32;;;;;;;;;;;;;;;;;;4994110;28;20013;-24
2022/03/19 07:20:58;;;;;;;;;;;;;;;;;;4994207;28;20302;-24
2022/03/19 07:23:26;;;;;;;;;;;;;;;;;;4994524;28;19914;-30
2022/03/19 07:25:52;;;;;;;;;;;;;;;;;;4994335;28;20261;-33
2022/03/19 07:28:19;;;;;;;;;;;;;;;;;;4994404;28;19993;-28
2022/03/19 07:30:47;;;;;;;;;;;;;;;;;;4994502;28;19921;-29
2022/03/19 07:33:13;;;;;;;;;;;;;;;;;;4994754;28;19945;-28
2022/03/19 07:35:41;;;;;;;;;;;;;;;;;;4994942;28;20016;-25
2022/03/19 07:38:08;;;;;;;;;;;;;;;;;;5010938;28;19932;-25
2022/03/19 07:43:22;;;;;;;;;;;;;;;;;;5018260;28;20391;-30
2022/03/19 07:45:48;;;;;;;;;;;;;;;;;;5017895;28;20055;-27
2022/03/19 07:48:15;;;;;;;;;;;;;;;;;;5018203;28;19978;-25
2022/03/19 07:50:41;;;;;;;;;;;;;;;;;;5000370;28;20024;-28
2022/03/19 07:53:08;;;;;;;;;;;;;;;;;;5017955;28;19917;-29
2022/03/19 07:55:34;;;;;;;;;;;;;;;;;;5018306;28;19913;-29
2022/03/19 07:58:00;;;;;;;;;;;;;;;;;;5017511;28;20015;-31
2022/03/19 08:00:27;;;;;;;;;;;;;;;;;;5017595;28;19917;-28
2022/03/19 08:02:54;;;;;;;;;;;;;;;;;;5000309;28;19909;-26
2022/03/19 08:05:20;;;;;;;;;;;;;;;;;;5017646;28;20242;-28
2022/03/19 08:07:46;;;;;;;;;;;;;;;;;;5017659;28;19921;-31
2022/03/19 08:10:15;;;;;;;;;;;;;;;;;;5018233;28;20007;-30
2022/03/19 08:12:41;;;;;;;;;;;;;;;;;;5017261;28;19928;-27
2022/03/19 08:15:08;;;;;;;;;;;;;;;;;;5017539;28;19920;-30
2022/03/19 08:17:37;;;;;;;;;;;;;;;;;;5017246;28;19921;-27
2022/03/19 08:20:04;;;;;;;;;;;;;;;;;;5017322;28;19909;-32
2022/03/19 08:22:30;;;;;;;;;;;;;;;;;;5017335;28;19917;-34
2022/03/19 08:24:59;;;;;;;;;;;;;;;;;;5000194;28;19910;-29
2022/03/19 08:27:26;;;;;;;;;;;;;;;;;;5017666;28;19913;-26
2022/03/19 08:29:53;;;;;;;;;;;;;;;;;;5017363;28;19992;-31
2022/03/19 08:32:22;;;;;;;;;;;;;;;;;;5017575;28;19917;-27
2022/03/19 08:34:48;;;;;;;;;;;;;;;;;;5017494;28;19913;-26
2022/03/19 08:37:14;;;;;;;;;;;;;;;;;;4999851;28;20338;-27
2022/03/19 08:42:25;;;;;;;;;;;;;;;;;;5017435;28;19921;-26
2022/03/19 08:44:56;;;;;;;;;;;;;;;;;;5017187;28;20272;-32
2022/03/19 08:47:22;;;;;;;;;;;;;;;;;;5009135;28;20246;-30
2022/03/19 08:49:48;;;;;;;;;;;;;;;;;;4999783;28;19920;-32
2022/03/19 08:52:16;;;;;;;;;;;;;;;;;;4998904;28;19910;-34
2022/03/19 08:54:42;;;;;;;;;;;;;;;;;;5000359;28;19983;-29
2022/03/19 08:57:08;;;;;;;;;;;;;;;;;;5018072;28;19910;-33
2022/03/19 08:59:35;;;;;;;;;;;;;;;;;;5016862;28;20316;-32
2022/03/19 09:02:01;;;;;;;;;;;;;;;;;;5016879;28;19909;-29
2022/03/19 09:04:28;;;;;;;;;;;;;;;;;;5016925;28;20320;-34
2022/03/19 09:06:54;;;;;;;;;;;;;;;;;;5017164;28;19964;-33
2022/03/19 09:09:21;;;;;;;;;;;;;;;;;;5016671;28;19987;-32
2022/03/19 09:11:48;;;;;;;;;;;;;;;;;;5016732;28;20364;-31
2022/03/19 09:14:15;;;;;;;;;;;;;;;;;;5016994;28;19913;-32
2022/03/19 09:16:41;;;;;;;;;;;;;;;;;;5016476;28;19918;-27
2022/03/19 09:19:09;;;;;;;;;;;;;;;;;;5016309;28;20382;-28
2022/03/19 09:21:36;;;;;;;;;;;;;;;;;;5016512;28;19914;-29
2022/03/19 09:24:03;;;;;;;;;;;;;;;;;;4998783;28;19949;-29
2022/03/19 09:26:31;;;;;;;;;;;;;;;;;;5015996;28;19920;-27
2022/03/19 09:28:58;;;;;;;;;;;;;;;;;;5015980;28;20012;-28
2022/03/19 09:31:24;;;;;;;;;;;;;;;;;;5015850;28;20238;-27
2022/03/19 09:33:50;;;;;;;;;;;;;;;;;;5015855;28;19913;-30
2022/03/19 09:36:16;;;;;;;;;;;;;;;;;;5015613;28;20336;-32
2022/03/19 09:38:42;;;;;;;;;;;;;;;;;;5016045;28;20013;-27
2022/03/19 09:41:08;;;;;;;;;;;;;;;;;;5015727;28;19921;-26
2022/03/19 09:43:36;;;;;;;;;;;;;;;;;;5015688;28;19917;-31
2022/03/19 09:46:02;;;;;;;;;;;;;;;;;;5015638;28;19925;-28
2022/03/19 09:48:28;;;;;;;;;;;;;;;;;;4998231;28;20375;-30
2022/03/19 09:50:55;;;;;;;;;;;;;;;;;;5015754;28;20230;-28
2022/03/19 09:53:24;;;;;;;;;;;;;;;;;;5015655;28;19983;-27
2022/03/19 09:55:51;;;;;;;;;;;;;;;;;;5015461;28;19914;-33
2022/03/19 09:58:18;;;;;;;;;;;;;;;;;;5015483;28;20008;-30
2022/03/19 10:00:44;;;;;;;;;;;;;;;;;;5015323;28;20329;-31
2022/03/19 10:03:10;;;;;;;;;;;;;;;;;;5015070;28;19909;-30
2022/03/19 10:08:36;;;;;;;;;;;;;;;;;;5015840;28;20291;-31
2022/03/19 10:11:02;;;;;;;;;;;;;;;;;;5015495;28;19925;-30
2022/03/19 10:13:28;;;;;;;;;;;;;;;;;;4998099;28;19909;-33
2022/03/19 10:15:54;;;;;;;;;;;;;;;;;;5015654;28;19917;-32
2022/03/19 10:18:20;;;;;;;;;;;;;;;;;;5015529;28;19913;-29
2022/03/19 10:20:46;;;;;;;;;;;;;;;;;;5015548;28;19964;-31
2022/03/19 10:23:12;;;;;;;;;;;;;;;;;;5015107;28;20008;-32
2022/03/19 10:25:38;;;;;;;;;;;;;;;;;;5015171;28;20256;-30
2022/03/19 10:28:09;;;;;;;;;;;;;;;;;;5015248;28;19914;-28
2022/03/19 10:30:35;;;;;;;;;;;;;;;;;;5015329;28;19909;-27
2022/03/19 10:33:01;;;;;;;;;;;;;;;;;;5015021;28;19914;-32
2022/03/19 10:35:27;;;;;;;;;;;;;;;;;;5014708;28;19918;-33
2022/03/19 10:37:53;;;;;;;;;;;;;;;;;;5014602;28;20020;-33
2022/03/19 10:40:20;;;;;;;;;;;;;;;;;;5015019;28;19913;-28
2022/03/19 10:42:46;;;;;;;;;;;;;;;;;;5015041;28;20347;-27
2022/03/19 10:45:12;;;;;;;;;;;;;;;;;;4997161;28;20345;-30
2022/03/19 10:47:38;;;;;;;;;;;;;;;;;;5014986;28;19971;-27
2022/03/19 10:50:04;;;;;;;;;;;;;;;;;;4997275;28;19917;-35
2022/03/19 10:52:30;;;;;;;;;;;;;;;;;;5014438;28;19957;-30
2022/03/19 10:54:56;;;;;;;;;;;;;;;;;;5014492;28;19913;-32
2022/03/19 10:57:22;;;;;;;;;;;;;;;;;;5014610;28;19972;-32
2022/03/19 10:59:48;;;;;;;;;;;;;;;;;;5014500;28;19968;-31
2022/03/19 11:02:14;;;;;;;;;;;;;;;;;;4997256;28;20296;-29
2022/03/19 11:04:40;;;;;;;;;;;;;;;;;;5014583;28;19913;-32
2022/03/19 11:07:06;;;;;;;;;;;;;;;;;;5014749;28;19971;-30
2022/03/19 11:09:32;;;;;;;;;;;;;;;;;;5014499;28;19914;-31
2022/03/19 11:11:58;;;;;;;;;;;;;;;;;;5014554;28;19910;-32
2022/03/19 11:14:24;;;;;;;;;;;;;;;;;;5014112;28;19943;-28
2022/03/19 11:17:23;;;;;;;;;;;;;;;;;;5014490;28;19910;-33
2022/03/19 11:19:36;;;;;;;;;;;;;;;;;;5014286;28;19918;-27
2022/03/19 11:22:02;;;;;;;;;;;;;;;;;;5014666;28;19913;-31
2022/03/19 11:24:28;;;;;;;;;;;;;;;;;;5014871;28;19920;-31
2022/03/19 11:26:54;;;;;;;;;;;;;;;;;;5014867;28;20251;-30
2022/03/19 11:29:20;;;;;;;;;;;;;;;;;;5014395;28;20008;-32
2022/03/19 11:31:47;;;;;;;;;;;;;;;;;;5014748;28;19952;-31
2022/03/19 11:34:14;;;;;;;;;;;;;;;;;;5014379;28;19924;-29
2022/03/19 11:36:40;;;;;;;;;;;;;;;;;;5014142;28;19965;-27
2022/03/19 11:39:06;;;;;;;;;;;;;;;;;;5014119;28;19913;-27
2022/03/19 11:41:32;;;;;;;;;;;;;;;;;;4996688;28;19924;-30
2022/03/19 11:43:58;;;;;;;;;;;;;;;;;;5014334;28;19921;-31
2022/03/19 11:46:24;;;;;;;;;;;;;;;;;;5014211;28;19914;-34
2022/03/19 11:48:50;;;;;;;;;;;;;;;;;;5014854;28;20328;-28
2022/03/19 11:51:17;;;;;;;;;;;;;;;;;;4997256;28;19917;-30
2022/03/19 11:53:43;;;;;;;;;;;;;;;;;;5014429;28;19917;-32
2022/03/19 11:56:09;;;;;;;;;;;;;;;;;;4997126;28;20045;-29
2022/03/19 11:58:37;;;;;;;;;;;;;;;;;;5014177;28;19965;-36
2022/03/19 12:01:04;;;;;;;;;;;;;;;;;;5014419;28;20240;-31
2022/03/19 12:03:30;;;;;;;;;;;;;;;;;;5014137;28;19913;-28
2022/03/19 12:05:56;;;;;;;;;;;;;;;;;;4996345;28;19953;-34
2022/03/19 12:08:22;;;;;;;;;;;;;;;;;;5014264;28;19949;-35
2022/03/19 12:10:48;;;;;;;;;;;;;;;;;;5014237;28;19924;-33
2022/03/19 12:13:14;;;;;;;;;;;;;;;;;;5014089;28;19964;-28
2022/03/19 12:15:40;;;;;;;;;;;;;;;;;;4996362;28;19914;-32
2022/03/19 12:18:06;;;;;;;;;;;;;;;;;;4996220;28;19983;-30
2022/03/19 12:20:32;;;;;;;;;;;;;;;;;;5013713;28;19913;-30
2022/03/19 12:22:58;;;;;;;;;;;;;;;;;;5013319;28;20300;-32
2022/03/19 12:25:25;;;;;;;;;;;;;;;;;;5013201;28;19972;-34
2022/03/19 12:27:51;;;;;;;;;;;;;;;;;;4998911;28;19913;-32
2022/03/19 12:30:18;;;;;;;;;;;;;;;;;;5017483;28;19925;-28
2022/03/19 12:32:44;;;;;;;;;;;;;;;;;;5016945;28;19913;-31
2022/03/19 12:35:10;;;;;;;;;;;;;;;;;;5016951;28;20367;-31
2022/03/19 12:37:36;;;;;;;;;;;;;;;;;;5016989;28;19921;-31
2022/03/19 12:40:02;;;;;;;;;;;;;;;;;;5017148;28;19996;-30
2022/03/19 12:42:28;;;;;;;;;;;;;;;;;;5017014;28;20378;-34
2022/03/19 12:44:58;;;;;;;;;;;;;;;;;;5016963;28;19948;-34
2022/03/19 12:47:24;;;;;;;;;;;;;;;;;;5016907;28;19914;-28
2022/03/19 12:49:50;;;;;;;;;;;;;;;;;;4999463;28;19909;-32
2022/03/19 12:52:16;;;;;;;;;;;;;;;;;;5016891;28;19917;-33
2022/03/19 12:54:42;;;;;;;;;;;;;;;;;;5017205;28;19910;-28
2022/03/19 12:57:09;;;;;;;;;;;;;;;;;;5016881;28;20016;-33
2022/03/19 12:59:35;;;;;;;;;;;;;;;;;;4999224;28;19914;-33
2022/03/19 13:02:01;;;;;;;;;;;;;;;;;;5016571;28;19968;-31
2022/03/19 13:04:27;;;;;;;;;;;;;;;;;;5016883;28;19917;-30
2022/03/19 13:06:53;;;;;;;;;;;;;;;;;;5016824;28;19983;-32
2022/03/19 13:09:19;;;;;;;;;;;;;;;;;;5016766;28;19909;-35
2022/03/19 13:11:47;;;;;;;;;;;;;;;;;;5016325;28;20008;-28
2022/03/19 13:14:14;;;;;;;;;;;;;;;;;;5016248;28;19920;-30
2022/03/19 13:16:40;;;;;;;;;;;;;;;;;;5016340;28;20250;-34
2022/03/19 13:19:07;;;;;;;;;;;;;;;;;;5016513;28;20092;-32
2022/03/19 13:21:33;;;;;;;;;;;;;;;;;;5016210;28;19914;-28
2022/03/19 13:23:59;;;;;;;;;;;;;;;;;;4998854;28;19913;-33
2022/03/19 13:26:25;;;;;;;;;;;;;;;;;;5016621;28;20249;-31
2022/03/19 13:28:51;;;;;;;;;;;;;;;;;;4998781;28;19972;-29
2022/03/19 13:31:17;;;;;;;;;;;;;;;;;;5016047;28;19924;-32
2022/03/19 13:33:43;;;;;;;;;;;;;;;;;;4999160;28;19920;-29
2022/03/19 13:36:09;;;;;;;;;;;;;;;;;;5015934;28;19913;-32
2022/03/19 13:38:35;;;;;;;;;;;;;;;;;;5015956;28;19917;-33
2022/03/19 13:41:01;;;;;;;;;;;;;;;;;;5016014;28;20245;-32
2022/03/19 13:43:27;;;;;;;;;;;;;;;;;;5015706;28;19928;-30
2022/03/19 13:45:53;;;;;;;;;;;;;;;;;;5016235;28;19913;-30
2022/03/19 13:48:19;;;;;;;;;;;;;;;;;;5015708;28;20236;-29
2022/03/19 13:50:45;;;;;;;;;;;;;;;;;;4998309;28;19920;-30
2022/03/19 13:53:13;;;;;;;;;;;;;;;;;;5014846;28;20266;-30
2022/03/19 13:55:39;;;;;;;;;;;;;;;;;;5015683;28;20001;-33
2022/03/19 13:58:05;;;;;;;;;;;;;;;;;;5015782;28;20016;-29
2022/03/19 14:00:33;;;;;;;;;;;;;;;;;;4997985;28;19914;-32
2022/03/19 14:03:00;;;;;;;;;;;;;;;;;;5015210;28;19964;-33
2022/03/19 14:05:26;;;;;;;;;;;;;;;;;;5015139;28;20004;-29
2022/03/19 14:07:52;;;;;;;;;;;;;;;;;;5015368;28;19917;-31
2022/03/19 14:10:18;;;;;;;;;;;;;;;;;;4997672;28;20331;-28
2022/03/19 14:12:46;;;;;;;;;;;;;;;;;;5014983;28;19952;-27
2022/03/19 14:15:12;;;;;;;;;;;;;;;;;;5015261;28;19936;-33
2022/03/19 14:17:38;;;;;;;;;;;;;;;;;;5015057;28;20345;-28
2022/03/19 14:20:04;;;;;;;;;;;;;;;;;;5015245;28;19920;-31
2022/03/19 14:22:30;;;;;;;;;;;;;;;;;;5015278;28;19933;-33
2022/03/19 14:24:56;;;;;;;;;;;;;;;;;;4997847;28;19999;-34
2022/03/19 14:27:22;;;;;;;;;;;;;;;;;;4997853;28;20055;-29
2022/03/19 14:29:48;;;;;;;;;;;;;;;;;;5015114;28;19913;-27
2022/03/19 14:32:13;;;;;;;;;;;;;;;;;;5015242;28;19913;-36
2022/03/19 14:34:39;;;;;;;;;;;;;;;;;;5014996;28;19992;-32
2022/03/19 14:37:05;;;;;;;;;;;;;;;;;;5014928;28;19921;-34
2022/03/19 14:39:32;;;;;;;;;;;;;;;;;;5014803;28;19918;-34
2022/03/19 14:42:00;;;;;;;;;;;;;;;;;;5014781;28;19924;-28
2022/03/19 14:44:26;;;;;;;;;;;;;;;;;;5014910;28;19910;-26
2022/03/19 14:46:52;;;;;;;;;;;;;;;;;;4997410;28;20335;-27
2022/03/19 14:49:18;;;;;;;;;;;;;;;;;;5013962;28;19910;-32
2022/03/19 14:51:44;;;;;;;;;;;;;;;;;;4997006;28;20242;-30
2022/03/19 14:54:10;;;;;;;;;;;;;;;;;;5014405;28;19921;-32
2022/03/19 14:56:38;;;;;;;;;;;;;;;;;;5014524;28;19924;-29
2022/03/19 14:59:04;;;;;;;;;;;;;;;;;;5014409;28;19914;-31
2022/03/19 15:01:30;;;;;;;;;;;;;;;;;;5014646;28;19924;-31
2022/03/19 15:03:56;;;;;;;;;;;;;;;;;;5014643;28;19909;-29
2022/03/19 15:06:25;;;;;;;;;;;;;;;;;;5014360;28;19964;-29
2022/03/19 15:08:55;;;;;;;;;;;;;;;;;;5014267;28;20344;-30
2022/03/19 15:11:21;;;;;;;;;;;;;;;;;;5014301;28;19972;-30
2022/03/19 15:13:49;;;;;;;;;;;;;;;;;;5014635;28;19914;-29
2022/03/19 15:16:15;;;;;;;;;;;;;;;;;;5014226;28;19940;-26
2022/03/19 15:18:42;;;;;;;;;;;;;;;;;;5014697;28;20006;-30
2022/03/19 15:21:09;;;;;;;;;;;;;;;;;;4996863;28;20363;-29
2022/03/19 15:23:35;;;;;;;;;;;;;;;;;;4996791;28;19910;-30
2022/03/19 15:26:02;;;;;;;;;;;;;;;;;;5014793;28;19913;-29
2022/03/19 15:28:28;;;;;;;;;;;;;;;;;;5014296;28;19913;-35
2022/03/19 15:30:54;;;;;;;;;;;;;;;;;;5014276;28;19948;-27
2022/03/19 15:33:20;;;;;;;;;;;;;;;;;;5014181;28;19936;-29
2022/03/19 15:35:46;;;;;;;;;;;;;;;;;;5014925;28;19913;-27
2022/03/19 15:41:03;;;;;;;;;;;;;;;;;;4994700;28;20042;-29
2022/03/19 15:43:29;;;;;;;;;;;;;;;;;;4993224;28;19945;-33
2022/03/19 15:45:55;;;;;;;;;;;;;;;;;;4994643;28;19918;-29
2022/03/19 15:48:21;;;;;;;;;;;;;;;;;;4994831;28;20364;-27
2022/03/19 15:50:47;;;;;;;;;;;;;;;;;;4994551;28;20104;-34
2022/03/19 15:53:13;;;;;;;;;;;;;;;;;;4994576;28;19986;-33
2022/03/19 15:55:39;;;;;;;;;;;;;;;;;;4993232;28;20017;-30
2022/03/19 15:58:06;;;;;;;;;;;;;;;;;;4994515;28;20016;-33
2022/03/19 16:00:32;;;;;;;;;;;;;;;;;;4995537;28;19914;-33
2022/03/19 16:02:58;;;;;;;;;;;;;;;;;;4998522;28;20281;-27
2022/03/19 16:05:24;;;;;;;;;;;;;;;;;;4997131;28;19973;-32
2022/03/19 16:07:50;;;;;;;;;;;;;;;;;;4998197;28;19913;-31
2022/03/19 16:10:16;;;;;;;;;;;;;;;;;;4997061;28;19956;-32
2022/03/19 16:12:44;;;;;;;;;;;;;;;;;;4997982;28;19910;-33
2022/03/19 16:15:10;;;;;;;;;;;;;;;;;;4998032;28;19920;-30
2022/03/19 16:17:36;;;;;;;;;;;;;;;;;;4998286;28;19933;-32
2022/03/19 16:20:02;;;;;;;;;;;;;;;;;;4998215;28;20064;-29
2022/03/19 16:22:28;;;;;;;;;;;;;;;;;;4997847;28;20035;-31
2022/03/19 16:24:54;;;;;;;;;;;;;;;;;;4997934;28;19918;-29
2022/03/19 16:27:20;;;;;;;;;;;;;;;;;;4997841;28;19914;-33
2022/03/19 16:29:46;;;;;;;;;;;;;;;;;;4997473;28;19924;-28
2022/03/19 16:32:13;;;;;;;;;;;;;;;;;;4997324;28;19997;-36
2022/03/19 16:34:39;;;;;;;;;;;;;;;;;;4997567;28;19916;-33
2022/03/19 16:37:05;;;;;;;;;;;;;;;;;;4997119;28;20346;-31
2022/03/19 16:39:31;;;;;;;;;;;;;;;;;;4997311;28;20257;-32
2022/03/19 16:41:57;;;;;;;;;;;;;;;;;;4997220;28;19914;-30
2022/03/19 16:44:23;;;;;;;;;;;;;;;;;;4996956;28;20316;-35
2022/03/19 16:46:49;;;;;;;;;;;;;;;;;;4997555;28;20249;-32
2022/03/19 16:49:15;;;;;;;;;;;;;;;;;;4996852;28;19961;-33
2022/03/19 16:51:41;;;;;;;;;;;;;;;;;;4995675;28;19925;-35
2022/03/19 16:54:07;;;;;;;;;;;;;;;;;;4996615;28;20020;-32
2022/03/19 16:56:33;;;;;;;;;;;;;;;;;;4996668;28;20007;-28
2022/03/19 16:58:59;;;;;;;;;;;;;;;;;;4996805;28;20361;-29
2022/03/19 17:01:25;;;;;;;;;;;;;;;;;;4996538;28;20060;-33
2022/03/19 17:03:51;;;;;;;;;;;;;;;;;;4995480;28;19953;-34